Amba, Kentucky
Current Conditions -  °F | °C
As of 9:15 AM on Monday 26 Jan 2015 (Local Time) from KPBX Reporting Station
Light Snow Light Snow  
Wind Chill: -5°   Ceiling: 500
Heat Index:   Visibility: 1.2mi
Dew Point:   Wind: 14mph
Humidity: 99%   Direction: 280°W
Pressure: 29.71"   Gusts: 21mph
Location:  37.4843°N, 82.6492°W
Report Text: KPBX 261415Z AUTO 28012G18KT 1 1/4SM -SN OVC005 00/00 A2971 RMK AO2 VIS 1/4V3 T00011001
Loading
Personal Weather Stations






























Interactive Weather Map New forecast layout! Learn more

10-Day Weather Forecast

Advertisements
Track Severe Weather on mobile